Terminal Aerodrome Forecast
Issued by NWS Twin Cities, MN

Home | Current Version | Previous Version | Text Only | Print | Product List | Glossary Off
Versions: 1 2 3 4 5 6 7 8 9 10 11 12 13 14 15 16 17 18 19 20 21 22 23 24 25

000
FTUS43 KMPX 031401 AAB
TAFSTC
TAF AMD
KSTC 031401Z 0314/0412 10004KT 6SM BR SCT006 BKN025
      TEMPO 0314/0315 BKN006
     FM031500 13010KT P6SM SCT025
     FM040600 12006KT 4SM BR SCT004=

USA.gov is the U.S. government's official web portal to all federal, state and local government web resources and services.